sensor_id;sensor_type;location;lat;lon;timestamp;temperature;humidity
49321;DHT22;35817;44.498;0.166;2022-11-15T00:02:12;12.20;99.90
49321;DHT22;35817;44.498;0.166;2022-11-15T00:04:37;12.10;99.90
49321;DHT22;35817;44.498;0.166;2022-11-15T00:07:03;12.10;99.90
49321;DHT22;35817;44.498;0.166;2022-11-15T00:09:29;12.00;99.90
49321;DHT22;35817;44.498;0.166;2022-11-15T00:11:54;12.00;99.90
49321;DHT22;35817;44.498;0.166;2022-11-15T00:14:20;12.00;99.90
49321;DHT22;35817;44.498;0.166;2022-11-15T00:16:46;11.90;99.90
49321;DHT22;35817;44.498;0.166;2022-11-15T00:19:11;11.90;99.90
49321;DHT22;35817;44.498;0.166;2022-11-15T00:21:37;11.90;99.90
49321;DHT22;35817;44.498;0.166;2022-11-15T00:24:03;11.90;99.90
49321;DHT22;35817;44.498;0.166;2022-11-15T00:26:28;11.80;99.90
49321;DHT22;35817;44.498;0.166;2022-11-15T00:28:54;11.90;99.90
49321;DHT22;35817;44.498;0.166;2022-11-15T00:31:20;11.80;99.90
49321;DHT22;35817;44.498;0.166;2022-11-15T00:33:45;11.80;99.90
49321;DHT22;35817;44.498;0.166;2022-11-15T00:36:11;11.90;99.90
49321;DHT22;35817;44.498;0.166;2022-11-15T00:38:39;11.90;99.90
49321;DHT22;35817;44.498;0.166;2022-11-15T00:41:06;11.90;99.90
49321;DHT22;35817;44.498;0.166;2022-11-15T00:43:33;11.90;99.90
49321;DHT22;35817;44.498;0.166;2022-11-15T00:45:59;11.90;99.90
49321;DHT22;35817;44.498;0.166;2022-11-15T00:48:25;11.90;99.90
49321;DHT22;35817;44.498;0.166;2022-11-15T00:50:51;11.80;99.90
49321;DHT22;35817;44.498;0.166;2022-11-15T00:53:17;11.80;99.90
49321;DHT22;35817;44.498;0.166;2022-11-15T00:55:43;11.90;99.90
49321;DHT22;35817;44.498;0.166;2022-11-15T00:58:09;11.90;99.90
49321;DHT22;35817;44.498;0.166;2022-11-15T01:00:35;11.80;99.90
49321;DHT22;35817;44.498;0.166;2022-11-15T01:03:01;11.80;99.90
49321;DHT22;35817;44.498;0.166;2022-11-15T01:05:27;11.80;99.90
49321;DHT22;35817;44.498;0.166;2022-11-15T01:07:57;11.80;99.90
49321;DHT22;35817;44.498;0.166;2022-11-15T01:10:23;11.80;99.90
49321;DHT22;35817;44.498;0.166;2022-11-15T01:12:49;11.80;99.90
49321;DHT22;35817;44.498;0.166;2022-11-15T01:15:15;11.80;99.90
49321;DHT22;35817;44.498;0.166;2022-11-15T01:17:41;11.80;99.90
49321;DHT22;35817;44.498;0.166;2022-11-15T01:20:07;11.90;99.90
49321;DHT22;35817;44.498;0.166;2022-11-15T01:22:33;11.90;99.90
49321;DHT22;35817;44.498;0.166;2022-11-15T01:24:59;11.90;99.90
49321;DHT22;35817;44.498;0.166;2022-11-15T01:27:25;11.90;99.90
49321;DHT22;35817;44.498;0.166;2022-11-15T01:29:50;11.90;99.90
49321;DHT22;35817;44.498;0.166;2022-11-15T01:32:16;12.00;99.90
49321;DHT22;35817;44.498;0.166;2022-11-15T01:34:42;12.00;99.90
49321;DHT22;35817;44.498;0.166;2022-11-15T01:37:07;12.00;99.90
49321;DHT22;35817;44.498;0.166;2022-11-15T01:39:33;12.00;99.90
49321;DHT22;35817;44.498;0.166;2022-11-15T01:42:01;12.00;99.90
49321;DHT22;35817;44.498;0.166;2022-11-15T01:44:39;12.00;99.90
49321;DHT22;35817;44.498;0.166;2022-11-15T01:47:10;12.00;99.90
49321;DHT22;35817;44.498;0.166;2022-11-15T01:49:39;12.10;99.90
49321;DHT22;35817;44.498;0.166;2022-11-15T01:52:12;12.10;99.90
49321;DHT22;35817;44.498;0.166;2022-11-15T01:54:39;12.10;99.90
49321;DHT22;35817;44.498;0.166;2022-11-15T01:57:08;12.10;99.90
49321;DHT22;35817;44.498;0.166;2022-11-15T01:59:36;12.10;99.90
49321;DHT22;35817;44.498;0.166;2022-11-15T02:02:03;12.10;99.90
49321;DHT22;35817;44.498;0.166;2022-11-15T02:04:31;12.10;99.90
49321;DHT22;35817;44.498;0.166;2022-11-15T02:06:58;12.10;99.90
49321;DHT22;35817;44.498;0.166;2022-11-15T02:09:24;12.10;99.90
49321;DHT22;35817;44.498;0.166;2022-11-15T02:11:50;12.10;99.90
49321;DHT22;35817;44.498;0.166;2022-11-15T02:14:18;12.10;99.90
49321;DHT22;35817;44.498;0.166;2022-11-15T02:30:23;12.20;99.90
49321;DHT22;35817;44.498;0.166;2022-11-15T02:33:00;12.10;99.90
49321;DHT22;35817;44.498;0.166;2022-11-15T02:38:05;12.10;99.90
49321;DHT22;35817;44.498;0.166;2022-11-15T02:40:52;12.10;99.90
49321;DHT22;35817;44.498;0.166;2022-11-15T02:43:43;12.10;99.90
49321;DHT22;35817;44.498;0.166;2022-11-15T02:49:20;12.00;99.90
49321;DHT22;35817;44.498;0.166;2022-11-15T02:51:48;12.00;99.90
49321;DHT22;35817;44.498;0.166;2022-11-15T02:54:23;12.00;99.90
49321;DHT22;35817;44.498;0.166;2022-11-15T02:56:51;12.00;99.90
49321;DHT22;35817;44.498;0.166;2022-11-15T03:10:32;12.00;99.90
49321;DHT22;35817;44.498;0.166;2022-11-15T03:13:10;12.00;99.90
49321;DHT22;35817;44.498;0.166;2022-11-15T03:15:44;11.90;99.90
49321;DHT22;35817;44.498;0.166;2022-11-15T03:18:20;11.90;99.90
49321;DHT22;35817;44.498;0.166;2022-11-15T03:20:48;11.90;99.90
49321;DHT22;35817;44.498;0.166;2022-11-15T03:23:15;11.90;99.90
49321;DHT22;35817;44.498;0.166;2022-11-15T03:25:45;11.90;99.90
49321;DHT22;35817;44.498;0.166;2022-11-15T03:28:14;11.90;99.90
49321;DHT22;35817;44.498;0.166;2022-11-15T03:30:42;11.80;99.90
49321;DHT22;35817;44.498;0.166;2022-11-15T03:33:10;11.80;99.90
49321;DHT22;35817;44.498;0.166;2022-11-15T03:35:43;11.90;99.90
49321;DHT22;35817;44.498;0.166;2022-11-15T03:38:26;11.80;99.90
49321;DHT22;35817;44.498;0.166;2022-11-15T03:40:59;11.80;99.90
49321;DHT22;35817;44.498;0.166;2022-11-15T03:43:47;11.80;99.90
49321;DHT22;35817;44.498;0.166;2022-11-15T03:46:19;11.70;99.90
49321;DHT22;35817;44.498;0.166;2022-11-15T03:49:04;11.70;99.90
49321;DHT22;35817;44.498;0.166;2022-11-15T03:51:32;11.70;99.90
49321;DHT22;35817;44.498;0.166;2022-11-15T03:53:57;11.70;99.90
49321;DHT22;35817;44.498;0.166;2022-11-15T03:56:23;11.70;99.90
49321;DHT22;35817;44.498;0.166;2022-11-15T03:58:49;11.70;99.90
49321;DHT22;35817;44.498;0.166;2022-11-15T04:01:14;11.70;99.90
49321;DHT22;35817;44.498;0.166;2022-11-15T04:03:40;11.70;99.90
49321;DHT22;35817;44.498;0.166;2022-11-15T04:06:06;11.70;99.90
49321;DHT22;35817;44.498;0.166;2022-11-15T04:08:32;11.70;99.90
49321;DHT22;35817;44.498;0.166;2022-11-15T04:10:57;11.60;99.90
49321;DHT22;35817;44.498;0.166;2022-11-15T04:13:23;11.70;99.90
49321;DHT22;35817;44.498;0.166;2022-11-15T04:15:48;11.70;99.90
49321;DHT22;35817;44.498;0.166;2022-11-15T04:18:14;11.60;99.90
49321;DHT22;35817;44.498;0.166;2022-11-15T04:20:40;11.60;99.90
49321;DHT22;35817;44.498;0.166;2022-11-15T04:23:24;11.60;99.90
49321;DHT22;35817;44.498;0.166;2022-11-15T04:26:11;11.60;99.90
49321;DHT22;35817;44.498;0.166;2022-11-15T04:28:38;11.70;99.90
49321;DHT22;35817;44.498;0.166;2022-11-15T04:31:24;11.70;99.90
49321;DHT22;35817;44.498;0.166;2022-11-15T04:33:49;11.60;99.90
49321;DHT22;35817;44.498;0.166;2022-11-15T04:36:15;11.60;99.90
49321;DHT22;35817;44.498;0.166;2022-11-15T04:38:59;11.60;99.90
49321;DHT22;35817;44.498;0.166;2022-11-15T04:41:25;11.60;99.90
49321;DHT22;35817;44.498;0.166;2022-11-15T04:43:51;11.50;99.90
49321;DHT22;35817;44.498;0.166;2022-11-15T04:46:17;11.50;99.90
49321;DHT22;35817;44.498;0.166;2022-11-15T04:48:42;11.40;99.90
49321;DHT22;35817;44.498;0.166;2022-11-15T04:51:08;11.40;99.90
49321;DHT22;35817;44.498;0.166;2022-11-15T04:53:34;11.40;99.90
49321;DHT22;35817;44.498;0.166;2022-11-15T04:55:59;11.40;99.90
49321;DHT22;35817;44.498;0.166;2022-11-15T04:58:25;11.30;99.90
49321;DHT22;35817;44.498;0.166;2022-11-15T05:00:51;11.30;99.90
49321;DHT22;35817;44.498;0.166;2022-11-15T05:03:16;11.30;99.90
49321;DHT22;35817;44.498;0.166;2022-11-15T05:06:01;11.40;99.90
49321;DHT22;35817;44.498;0.166;2022-11-15T05:08:26;11.40;99.90
49321;DHT22;35817;44.498;0.166;2022-11-15T05:10:52;11.40;99.90
49321;DHT22;35817;44.498;0.166;2022-11-15T05:13:18;11.40;99.90
49321;DHT22;35817;44.498;0.166;2022-11-15T05:15:43;11.40;99.90
49321;DHT22;35817;44.498;0.166;2022-11-15T05:18:10;11.50;99.90
49321;DHT22;35817;44.498;0.166;2022-11-15T05:20:35;11.50;99.90
49321;DHT22;35817;44.498;0.166;2022-11-15T05:23:01;11.50;99.90
49321;DHT22;35817;44.498;0.166;2022-11-15T05:25:27;11.50;99.90
49321;DHT22;35817;44.498;0.166;2022-11-15T05:27:53;11.50;99.90
49321;DHT22;35817;44.498;0.166;2022-11-15T05:30:19;11.60;99.90
49321;DHT22;35817;44.498;0.166;2022-11-15T05:32:44;11.60;99.90
49321;DHT22;35817;44.498;0.166;2022-11-15T05:35:18;11.60;99.90
49321;DHT22;35817;44.498;0.166;2022-11-15T05:37:45;11.60;99.90
49321;DHT22;35817;44.498;0.166;2022-11-15T05:40:11;11.60;99.90
49321;DHT22;35817;44.498;0.166;2022-11-15T05:42:37;11.60;99.90
49321;DHT22;35817;44.498;0.166;2022-11-15T05:45:06;11.60;99.90
49321;DHT22;35817;44.498;0.166;2022-11-15T05:47:34;11.60;99.90
49321;DHT22;35817;44.498;0.166;2022-11-15T05:50:02;11.60;99.90
49321;DHT22;35817;44.498;0.166;2022-11-15T05:52:30;11.60;99.90
49321;DHT22;35817;44.498;0.166;2022-11-15T05:54:57;11.60;99.90
49321;DHT22;35817;44.498;0.166;2022-11-15T05:57:24;11.60;99.90
49321;DHT22;35817;44.498;0.166;2022-11-15T05:59:50;11.70;99.90
49321;DHT22;35817;44.498;0.166;2022-11-15T06:02:16;11.60;99.90
49321;DHT22;35817;44.498;0.166;2022-11-15T06:04:41;11.60;99.90
49321;DHT22;35817;44.498;0.166;2022-11-15T06:07:07;11.60;99.90
49321;DHT22;35817;44.498;0.166;2022-11-15T06:09:33;11.60;99.90
49321;DHT22;35817;44.498;0.166;2022-11-15T06:11:58;11.60;99.90
49321;DHT22;35817;44.498;0.166;2022-11-15T06:14:24;11.60;99.90
49321;DHT22;35817;44.498;0.166;2022-11-15T06:16:50;11.60;99.90
49321;DHT22;35817;44.498;0.166;2022-11-15T06:19:15;11.60;99.90
49321;DHT22;35817;44.498;0.166;2022-11-15T06:21:41;11.60;99.90
49321;DHT22;35817;44.498;0.166;2022-11-15T06:24:07;11.60;99.90
49321;DHT22;35817;44.498;0.166;2022-11-15T06:26:32;11.60;99.90
49321;DHT22;35817;44.498;0.166;2022-11-15T06:28:58;11.60;99.90
49321;DHT22;35817;44.498;0.166;2022-11-15T06:31:24;11.70;99.90
49321;DHT22;35817;44.498;0.166;2022-11-15T06:33:50;11.70;99.90
49321;DHT22;35817;44.498;0.166;2022-11-15T06:36:15;11.70;99.90
49321;DHT22;35817;44.498;0.166;2022-11-15T06:38:44;11.70;99.90
49321;DHT22;35817;44.498;0.166;2022-11-15T06:41:11;11.70;99.90
49321;DHT22;35817;44.498;0.166;2022-11-15T06:43:38;11.70;99.90
49321;DHT22;35817;44.498;0.166;2022-11-15T06:46:05;11.80;99.90
49321;DHT22;35817;44.498;0.166;2022-11-15T06:48:32;11.70;99.90
49321;DHT22;35817;44.498;0.166;2022-11-15T06:51:00;11.70;99.90
49321;DHT22;35817;44.498;0.166;2022-11-15T06:53:26;11.70;99.90
49321;DHT22;35817;44.498;0.166;2022-11-15T06:55:52;11.70;99.90
49321;DHT22;35817;44.498;0.166;2022-11-15T06:58:18;11.80;99.90
49321;DHT22;35817;44.498;0.166;2022-11-15T07:00:44;11.80;99.90
49321;DHT22;35817;44.498;0.166;2022-11-15T07:03:09;11.70;99.90
49321;DHT22;35817;44.498;0.166;2022-11-15T07:05:36;11.80;99.90
49321;DHT22;35817;44.498;0.166;2022-11-15T07:08:02;11.80;99.90
49321;DHT22;35817;44.498;0.166;2022-11-15T07:10:28;11.80;99.90
49321;DHT22;35817;44.498;0.166;2022-11-15T07:12:54;11.80;99.90
49321;DHT22;35817;44.498;0.166;2022-11-15T07:15:22;11.70;99.90
49321;DHT22;35817;44.498;0.166;2022-11-15T07:17:48;11.80;99.90
49321;DHT22;35817;44.498;0.166;2022-11-15T07:20:15;11.80;99.90
49321;DHT22;35817;44.498;0.166;2022-11-15T07:22:42;11.80;99.90
49321;DHT22;35817;44.498;0.166;2022-11-15T07:25:10;11.80;99.90
49321;DHT22;35817;44.498;0.166;2022-11-15T07:27:36;11.90;99.90
49321;DHT22;35817;44.498;0.166;2022-11-15T07:30:02;11.90;99.90
49321;DHT22;35817;44.498;0.166;2022-11-15T07:32:28;11.90;99.90
49321;DHT22;35817;44.498;0.166;2022-11-15T07:34:54;11.90;99.90
49321;DHT22;35817;44.498;0.166;2022-11-15T07:37:20;12.00;99.90
49321;DHT22;35817;44.498;0.166;2022-11-15T07:39:46;12.00;99.90
49321;DHT22;35817;44.498;0.166;2022-11-15T07:42:11;12.00;99.90
49321;DHT22;35817;44.498;0.166;2022-11-15T07:44:56;12.00;99.90
49321;DHT22;35817;44.498;0.166;2022-11-15T07:47:21;12.00;99.90
49321;DHT22;35817;44.498;0.166;2022-11-15T07:49:47;12.00;99.90
49321;DHT22;35817;44.498;0.166;2022-11-15T07:52:13;12.10;99.90
49321;DHT22;35817;44.498;0.166;2022-11-15T07:54:39;12.10;99.90
49321;DHT22;35817;44.498;0.166;2022-11-15T07:57:05;12.10;99.90
49321;DHT22;35817;44.498;0.166;2022-11-15T07:59:32;12.10;99.90
49321;DHT22;35817;44.498;0.166;2022-11-15T08:02:03;12.20;99.90
49321;DHT22;35817;44.498;0.166;2022-11-15T08:04:29;12.30;99.90
49321;DHT22;35817;44.498;0.166;2022-11-15T08:06:55;12.30;99.90
49321;DHT22;35817;44.498;0.166;2022-11-15T08:09:20;12.40;99.90
49321;DHT22;35817;44.498;0.166;2022-11-15T08:11:46;12.40;99.90
49321;DHT22;35817;44.498;0.166;2022-11-15T08:14:12;12.50;99.90
49321;DHT22;35817;44.498;0.166;2022-11-15T08:16:38;12.50;99.90
49321;DHT22;35817;44.498;0.166;2022-11-15T08:19:03;12.50;99.90
49321;DHT22;35817;44.498;0.166;2022-11-15T08:21:31;12.60;99.90
49321;DHT22;35817;44.498;0.166;2022-11-15T08:24:04;12.70;99.90
49321;DHT22;35817;44.498;0.166;2022-11-15T08:26:31;12.70;99.90
49321;DHT22;35817;44.498;0.166;2022-11-15T08:28:57;12.80;99.90
49321;DHT22;35817;44.498;0.166;2022-11-15T08:31:23;12.80;99.90
49321;DHT22;35817;44.498;0.166;2022-11-15T08:33:49;12.90;99.90
49321;DHT22;35817;44.498;0.166;2022-11-15T08:36:16;13.00;99.90
49321;DHT22;35817;44.498;0.166;2022-11-15T08:38:42;13.10;99.90
49321;DHT22;35817;44.498;0.166;2022-11-15T08:41:25;13.20;99.90
49321;DHT22;35817;44.498;0.166;2022-11-15T08:43:51;13.30;99.90
49321;DHT22;35817;44.498;0.166;2022-11-15T08:46:17;13.30;99.90
49321;DHT22;35817;44.498;0.166;2022-11-15T08:48:43;13.40;99.90
49321;DHT22;35817;44.498;0.166;2022-11-15T08:51:09;13.60;99.90
49321;DHT22;35817;44.498;0.166;2022-11-15T08:53:35;13.70;99.90
49321;DHT22;35817;44.498;0.166;2022-11-15T08:56:01;13.80;99.90
49321;DHT22;35817;44.498;0.166;2022-11-15T08:58:27;13.90;99.90
49321;DHT22;35817;44.498;0.166;2022-11-15T09:00:52;14.00;99.90
49321;DHT22;35817;44.498;0.166;2022-11-15T09:03:18;14.10;99.90
49321;DHT22;35817;44.498;0.166;2022-11-15T09:05:44;14.30;99.90
49321;DHT22;35817;44.498;0.166;2022-11-15T09:08:10;14.60;99.90
49321;DHT22;35817;44.498;0.166;2022-11-15T09:10:36;14.90;99.90
49321;DHT22;35817;44.498;0.166;2022-11-15T09:13:02;15.20;99.90
49321;DHT22;35817;44.498;0.166;2022-11-15T09:15:28;15.50;99.90
49321;DHT22;35817;44.498;0.166;2022-11-15T09:17:53;15.70;99.90
49321;DHT22;35817;44.498;0.166;2022-11-15T09:20:19;15.90;99.90
49321;DHT22;35817;44.498;0.166;2022-11-15T09:22:44;16.00;99.90
49321;DHT22;35817;44.498;0.166;2022-11-15T09:25:10;16.10;99.90
49321;DHT22;35817;44.498;0.166;2022-11-15T09:27:36;16.20;99.90
49321;DHT22;35817;44.498;0.166;2022-11-15T09:30:02;16.20;99.90
49321;DHT22;35817;44.498;0.166;2022-11-15T09:32:29;16.20;99.90
49321;DHT22;35817;44.498;0.166;2022-11-15T09:34:56;16.30;99.90
49321;DHT22;35817;44.498;0.166;2022-11-15T09:37:31;16.20;99.90
49321;DHT22;35817;44.498;0.166;2022-11-15T09:39:57;16.30;99.90
49321;DHT22;35817;44.498;0.166;2022-11-15T09:42:47;16.40;99.90
49321;DHT22;35817;44.498;0.166;2022-11-15T09:45:26;16.30;99.90
49321;DHT22;35817;44.498;0.166;2022-11-15T09:50:50;16.10;99.90
49321;DHT22;35817;44.498;0.166;2022-11-15T09:53:27;16.00;99.90
49321;DHT22;35817;44.498;0.166;2022-11-15T09:56:13;16.00;99.90
49321;DHT22;35817;44.498;0.166;2022-11-15T09:58:54;16.00;99.90
49321;DHT22;35817;44.498;0.166;2022-11-15T10:01:44;16.10;99.90
49321;DHT22;35817;44.498;0.166;2022-11-15T10:04:15;16.10;99.90
49321;DHT22;35817;44.498;0.166;2022-11-15T10:06:52;16.10;99.90
49321;DHT22;35817;44.498;0.166;2022-11-15T10:09:28;16.20;99.90
49321;DHT22;35817;44.498;0.166;2022-11-15T10:11:54;16.40;99.90
49321;DHT22;35817;44.498;0.166;2022-11-15T10:14:24;16.90;99.90
49321;DHT22;35817;44.498;0.166;2022-11-15T10:17:11;17.60;99.90
49321;DHT22;35817;44.498;0.166;2022-11-15T10:22:46;17.70;99.90
49321;DHT22;35817;44.498;0.166;2022-11-15T10:27:44;17.40;99.90
49321;DHT22;35817;44.498;0.166;2022-11-15T10:30:17;17.20;99.90
49321;DHT22;35817;44.498;0.166;2022-11-15T10:32:45;17.00;99.90
49321;DHT22;35817;44.498;0.166;2022-11-15T10:37:48;16.70;99.90
49321;DHT22;35817;44.498;0.166;2022-11-15T10:40:21;16.70;99.90
49321;DHT22;35817;44.498;0.166;2022-11-15T10:42:48;16.50;99.90
49321;DHT22;35817;44.498;0.166;2022-11-15T10:45:29;16.50;99.90
49321;DHT22;35817;44.498;0.166;2022-11-15T10:48:24;16.50;99.90
49321;DHT22;35817;44.498;0.166;2022-11-15T10:50:50;16.50;99.90
49321;DHT22;35817;44.498;0.166;2022-11-15T10:53:24;16.60;99.90
49321;DHT22;35817;44.498;0.166;2022-11-15T10:55:58;16.80;99.90
49321;DHT22;35817;44.498;0.166;2022-11-15T10:58:49;16.90;99.90
49321;DHT22;35817;44.498;0.166;2022-11-15T11:01:19;17.00;99.90
49321;DHT22;35817;44.498;0.166;2022-11-15T11:04:08;17.00;99.90
49321;DHT22;35817;44.498;0.166;2022-11-15T11:06:58;16.90;99.90
49321;DHT22;35817;44.498;0.166;2022-11-15T11:09:47;16.90;99.90
49321;DHT22;35817;44.498;0.166;2022-11-15T11:12:34;16.80;99.90
49321;DHT22;35817;44.498;0.166;2022-11-15T11:15:15;16.80;99.90
49321;DHT22;35817;44.498;0.166;2022-11-15T11:20:40;16.90;99.90
49321;DHT22;35817;44.498;0.166;2022-11-15T11:28:44;16.80;99.90
49321;DHT22;35817;44.498;0.166;2022-11-15T11:34:00;16.70;99.90
49321;DHT22;35817;44.498;0.166;2022-11-15T11:39:24;16.60;99.90
49321;DHT22;35817;44.498;0.166;2022-11-15T11:42:10;16.60;99.90
49321;DHT22;35817;44.498;0.166;2022-11-15T11:47:30;16.40;99.90
49321;DHT22;35817;44.498;0.166;2022-11-15T11:50:17;16.50;99.90
49321;DHT22;35817;44.498;0.166;2022-11-15T11:55:28;16.70;99.90
49321;DHT22;35817;44.498;0.166;2022-11-15T11:58:21;16.80;99.90
49321;DHT22;35817;44.498;0.166;2022-11-15T12:00:55;16.90;99.90
49321;DHT22;35817;44.498;0.166;2022-11-15T12:03:28;17.00;99.90
49321;DHT22;35817;44.498;0.166;2022-11-15T12:06:00;17.20;99.90
49321;DHT22;35817;44.498;0.166;2022-11-15T12:08:52;17.30;99.90
49321;DHT22;35817;44.498;0.166;2022-11-15T12:13:59;17.40;99.90
49321;DHT22;35817;44.498;0.166;2022-11-15T12:16:30;17.40;99.90
49321;DHT22;35817;44.498;0.166;2022-11-15T12:19:00;17.40;99.90
49321;DHT22;35817;44.498;0.166;2022-11-15T12:21:56;17.50;99.90
49321;DHT22;35817;44.498;0.166;2022-11-15T12:24:30;17.50;99.90
49321;DHT22;35817;44.498;0.166;2022-11-15T12:27:11;17.50;99.90
49321;DHT22;35817;44.498;0.166;2022-11-15T12:29:41;17.50;99.90
49321;DHT22;35817;44.498;0.166;2022-11-15T12:32:25;17.50;99.90
49321;DHT22;35817;44.498;0.166;2022-11-15T12:34:52;17.30;99.90
49321;DHT22;35817;44.498;0.166;2022-11-15T12:45:44;16.90;99.90
49321;DHT22;35817;44.498;0.166;2022-11-15T12:48:45;16.90;99.90
49321;DHT22;35817;44.498;0.166;2022-11-15T12:51:11;16.80;99.90
49321;DHT22;35817;44.498;0.166;2022-11-15T12:53:37;16.80;99.90
49321;DHT22;35817;44.498;0.166;2022-11-15T12:58:52;16.80;99.90
49321;DHT22;35817;44.498;0.166;2022-11-15T13:04:24;16.70;99.90
49321;DHT22;35817;44.498;0.166;2022-11-15T13:06:52;16.60;99.90
49321;DHT22;35817;44.498;0.166;2022-11-15T13:15:34;16.40;99.90
49321;DHT22;35817;44.498;0.166;2022-11-15T13:20:49;16.30;99.90
49321;DHT22;35817;44.498;0.166;2022-11-15T13:23:15;16.30;99.90
49321;DHT22;35817;44.498;0.166;2022-11-15T13:30:41;16.30;99.90
49321;DHT22;35817;44.498;0.166;2022-11-15T13:35:45;16.20;99.90
49321;DHT22;35817;44.498;0.166;2022-11-15T13:38:25;16.10;99.90
49321;DHT22;35817;44.498;0.166;2022-11-15T13:40:56;16.10;99.90
49321;DHT22;35817;44.498;0.166;2022-11-15T13:48:38;16.00;99.90
49321;DHT22;35817;44.498;0.166;2022-11-15T13:53:47;15.80;99.90
49321;DHT22;35817;44.498;0.166;2022-11-15T13:56:16;15.80;99.90
49321;DHT22;35817;44.498;0.166;2022-11-15T13:58:44;15.60;99.90
49321;DHT22;35817;44.498;0.166;2022-11-15T14:01:16;15.50;99.90
49321;DHT22;35817;44.498;0.166;2022-11-15T14:03:52;15.40;99.90
49321;DHT22;35817;44.498;0.166;2022-11-15T14:06:21;15.20;99.90
49321;DHT22;35817;44.498;0.166;2022-11-15T14:11:25;15.00;99.90
49321;DHT22;35817;44.498;0.166;2022-11-15T14:19:05;14.80;99.90
49321;DHT22;35817;44.498;0.166;2022-11-15T14:21:32;14.70;99.90
49321;DHT22;35817;44.498;0.166;2022-11-15T14:24:16;14.70;99.90
49321;DHT22;35817;44.498;0.166;2022-11-15T14:26:43;14.70;99.90
49321;DHT22;35817;44.498;0.166;2022-11-15T14:29:25;14.70;99.90
49321;DHT22;35817;44.498;0.166;2022-11-15T14:34:36;14.60;99.90
49321;DHT22;35817;44.498;0.166;2022-11-15T14:37:02;14.60;99.90
49321;DHT22;35817;44.498;0.166;2022-11-15T14:39:27;14.70;99.90
49321;DHT22;35817;44.498;0.166;2022-11-15T14:41:53;14.70;99.90
49321;DHT22;35817;44.498;0.166;2022-11-15T14:44:18;14.70;99.90
49321;DHT22;35817;44.498;0.166;2022-11-15T14:46:46;14.80;99.90
49321;DHT22;35817;44.498;0.166;2022-11-15T14:49:14;14.90;99.90
49321;DHT22;35817;44.498;0.166;2022-11-15T14:51:40;14.90;99.90
49321;DHT22;35817;44.498;0.166;2022-11-15T14:54:10;14.90;99.90
49321;DHT22;35817;44.498;0.166;2022-11-15T14:56:36;15.00;99.90
49321;DHT22;35817;44.498;0.166;2022-11-15T14:59:01;14.90;99.90
49321;DHT22;35817;44.498;0.166;2022-11-15T15:01:27;15.00;99.90
49321;DHT22;35817;44.498;0.166;2022-11-15T15:03:53;15.00;99.90
49321;DHT22;35817;44.498;0.166;2022-11-15T15:06:22;15.00;99.90
49321;DHT22;35817;44.498;0.166;2022-11-15T15:08:48;15.00;99.90
49321;DHT22;35817;44.498;0.166;2022-11-15T15:11:24;15.10;99.90
49321;DHT22;35817;44.498;0.166;2022-11-15T15:13:52;15.20;99.90
49321;DHT22;35817;44.498;0.166;2022-11-15T15:16:18;15.40;99.90
49321;DHT22;35817;44.498;0.166;2022-11-15T15:18:44;15.70;99.90
49321;DHT22;35817;44.498;0.166;2022-11-15T15:23:47;16.20;99.90
49321;DHT22;35817;44.498;0.166;2022-11-15T15:26:13;16.30;99.90
49321;DHT22;35817;44.498;0.166;2022-11-15T15:28:39;16.30;99.90
49321;DHT22;35817;44.498;0.166;2022-11-15T15:31:05;16.20;99.90
49321;DHT22;35817;44.498;0.166;2022-11-15T15:33:32;16.10;99.90
49321;DHT22;35817;44.498;0.166;2022-11-15T15:35:57;16.00;99.90
49321;DHT22;35817;44.498;0.166;2022-11-15T15:38:24;16.00;99.90
49321;DHT22;35817;44.498;0.166;2022-11-15T15:40:50;15.90;99.90
49321;DHT22;35817;44.498;0.166;2022-11-15T15:43:15;15.80;99.90
49321;DHT22;35817;44.498;0.166;2022-11-15T15:45:41;15.70;99.90
49321;DHT22;35817;44.498;0.166;2022-11-15T15:48:12;15.60;99.90
49321;DHT22;35817;44.498;0.166;2022-11-15T15:50:38;15.50;99.90
49321;DHT22;35817;44.498;0.166;2022-11-15T15:53:05;15.50;99.90
49321;DHT22;35817;44.498;0.166;2022-11-15T15:55:31;15.40;99.90
49321;DHT22;35817;44.498;0.166;2022-11-15T15:57:57;15.30;99.90
49321;DHT22;35817;44.498;0.166;2022-11-15T16:00:24;15.30;99.90
49321;DHT22;35817;44.498;0.166;2022-11-15T16:02:51;15.30;99.90
49321;DHT22;35817;44.498;0.166;2022-11-15T16:05:17;15.30;99.90
49321;DHT22;35817;44.498;0.166;2022-11-15T16:07:43;15.30;99.90
49321;DHT22;35817;44.498;0.166;2022-11-15T16:10:25;15.30;99.90
49321;DHT22;35817;44.498;0.166;2022-11-15T16:12:52;15.20;99.90
49321;DHT22;35817;44.498;0.166;2022-11-15T16:15:19;15.20;99.90
49321;DHT22;35817;44.498;0.166;2022-11-15T16:17:50;15.10;99.90
49321;DHT22;35817;44.498;0.166;2022-11-15T16:20:33;15.10;99.90
49321;DHT22;35817;44.498;0.166;2022-11-15T16:22:59;15.10;99.90
49321;DHT22;35817;44.498;0.166;2022-11-15T16:25:25;15.10;99.90
49321;DHT22;35817;44.498;0.166;2022-11-15T16:27:51;15.10;99.90
49321;DHT22;35817;44.498;0.166;2022-11-15T16:30:20;15.10;99.90
49321;DHT22;35817;44.498;0.166;2022-11-15T16:32:46;15.10;99.90
49321;DHT22;35817;44.498;0.166;2022-11-15T16:35:12;15.10;99.90
49321;DHT22;35817;44.498;0.166;2022-11-15T16:37:38;15.10;99.90
49321;DHT22;35817;44.498;0.166;2022-11-15T16:40:24;15.00;99.90
49321;DHT22;35817;44.498;0.166;2022-11-15T16:42:51;15.00;99.90
49321;DHT22;35817;44.498;0.166;2022-11-15T16:45:16;14.90;99.90
49321;DHT22;35817;44.498;0.166;2022-11-15T16:47:42;14.80;99.90
49321;DHT22;35817;44.498;0.166;2022-11-15T16:50:26;14.60;99.90
49321;DHT22;35817;44.498;0.166;2022-11-15T16:52:53;14.50;99.90
49321;DHT22;35817;44.498;0.166;2022-11-15T16:55:20;14.40;99.90
49321;DHT22;35817;44.498;0.166;2022-11-15T16:57:47;14.30;99.90
49321;DHT22;35817;44.498;0.166;2022-11-15T17:00:13;14.30;99.90
49321;DHT22;35817;44.498;0.166;2022-11-15T17:02:44;14.20;99.90
49321;DHT22;35817;44.498;0.166;2022-11-15T17:05:11;14.10;99.90
49321;DHT22;35817;44.498;0.166;2022-11-15T17:07:37;14.10;99.90
49321;DHT22;35817;44.498;0.166;2022-11-15T17:10:03;14.00;99.90
49321;DHT22;35817;44.498;0.166;2022-11-15T17:12:29;14.00;99.90
49321;DHT22;35817;44.498;0.166;2022-11-15T17:14:55;14.00;99.90
49321;DHT22;35817;44.498;0.166;2022-11-15T17:17:22;13.80;99.90
49321;DHT22;35817;44.498;0.166;2022-11-15T17:19:47;13.80;99.90
49321;DHT22;35817;44.498;0.166;2022-11-15T17:22:13;13.70;99.90
49321;DHT22;35817;44.498;0.166;2022-11-15T17:24:39;13.60;99.90
49321;DHT22;35817;44.498;0.166;2022-11-15T17:27:04;13.60;99.90
49321;DHT22;35817;44.498;0.166;2022-11-15T17:29:30;13.50;99.90
49321;DHT22;35817;44.498;0.166;2022-11-15T17:31:56;13.50;99.90
49321;DHT22;35817;44.498;0.166;2022-11-15T17:34:21;13.50;99.90
49321;DHT22;35817;44.498;0.166;2022-11-15T17:36:48;13.50;99.90
49321;DHT22;35817;44.498;0.166;2022-11-15T17:39:13;13.50;99.90